Time;durP1;ratioP1;P1;durP2;ratioP2;P2;SDS_P1;SDS_P2;PMS_P1;PMS_P2;Temp;Humidity;BMP_temperature;BMP_pressure;BME280_temperature;BME280_humidity;BME280_pressure;Samples;Min_cycle;Max_cycle;Signal;HPM_P1;HPM_P2
2022/04/17 00:00:27;;;;;;;2.35;2.15;;;21.60;36.60;;;;;;5045751;28;20516;-80
2022/04/17 00:02:53;;;;;;;2.13;1.92;;;21.70;36.70;;;;;;5044271;28;20473;-80
2022/04/17 00:05:18;;;;;;;2.53;2.05;;;21.70;36.70;;;;;;5039792;28;20013;-81
2022/04/17 00:07:45;;;;;;;2.30;2.10;;;21.60;36.70;;;;;;5041592;28;20082;-79
2022/04/17 00:10:11;;;;;;;2.20;2.00;;;21.60;36.60;;;;;;5050500;28;20025;-79
2022/04/17 00:12:41;;;;;;;2.20;2.00;;;21.60;36.60;;;;;;5048466;28;20010;-78
2022/04/17 00:15:09;;;;;;;2.33;2.13;;;21.60;36.60;;;;;;5050819;28;20076;-77
2022/04/17 00:17:37;;;;;;;2.20;1.95;;;21.60;36.60;;;;;;5053570;28;20018;-78
2022/04/17 00:20:03;;;;;;;2.30;2.10;;;21.60;36.60;;;;;;5054076;28;20037;-77
2022/04/17 00:22:31;;;;;;;3.13;2.15;;;21.60;36.60;;;;;;5054779;28;20022;-78
2022/04/17 00:25:00;;;;;;;3.20;2.20;;;21.60;36.60;;;;;;5056792;28;20013;-78
2022/04/17 00:27:26;;;;;;;2.55;2.10;;;21.60;36.60;;;;;;5056111;28;20005;-79
2022/04/17 00:29:53;;;;;;;2.28;2.08;;;21.60;36.70;;;;;;5054438;28;20052;-79
2022/04/17 00:32:21;;;;;;;2.30;2.10;;;21.60;36.60;;;;;;5051065;28;20017;-80
2022/04/17 00:34:47;;;;;;;2.50;2.20;;;21.60;36.60;;;;;;5048993;28;20033;-80
2022/04/17 00:37:12;;;;;;;2.60;2.25;;;21.60;36.60;;;;;;5029781;28;20102;-78
2022/04/17 00:39:40;;;;;;;3.80;2.35;;;21.60;36.70;;;;;;5039601;28;20045;-79
2022/04/17 00:42:07;;;;;;;2.30;2.10;;;21.50;36.60;;;;;;5023116;28;20044;-79
2022/04/17 00:44:33;;;;;;;2.85;2.20;;;21.50;36.60;;;;;;5039546;28;20006;-79
2022/04/17 00:46:59;;;;;;;2.47;2.08;;;21.50;36.50;;;;;;5039532;28;20018;-78
2022/04/17 00:49:26;;;;;;;2.25;2.05;;;21.60;36.60;;;;;;5038424;28;20030;-81
2022/04/17 00:51:53;;;;;;;2.50;2.30;;;21.50;36.60;;;;;;5037496;28;20025;-80
2022/04/17 00:54:19;;;;;;;2.85;2.38;;;21.50;36.50;;;;;;5037084;28;20037;-79
2022/04/17 00:56:46;;;;;;;2.58;1.90;;;21.50;36.60;;;;;;5036601;28;20365;-80
2022/04/17 00:59:13;;;;;;;2.53;2.28;;;21.50;36.50;;;;;;5036803;28;20013;-79
2022/04/17 01:01:39;;;;;;;2.95;2.42;;;21.50;36.60;;;;;;5037374;28;20057;-78
2022/04/17 01:04:05;;;;;;;2.38;2.13;;;21.50;36.60;;;;;;5035182;28;20045;-79
2022/04/17 01:06:32;;;;;;;2.70;2.20;;;21.50;36.60;;;;;;5018279;28;20427;-79
2022/04/17 01:08:58;;;;;;;2.50;2.20;;;21.50;36.50;;;;;;5034607;28;20542;-79
2022/04/17 01:11:25;;;;;;;2.22;1.92;;;21.50;36.50;;;;;;5034130;28;20018;-79
2022/04/17 01:13:52;;;;;;;2.45;2.25;;;21.50;36.50;;;;;;5035322;28;20025;-80
2022/04/17 01:16:18;;;;;;;3.08;2.00;;;21.50;36.50;;;;;;5018837;28;20096;-81
2022/04/17 01:19:03;;;;;;;2.60;2.30;;;21.50;36.50;;;;;;5036813;28;20032;-80
2022/04/17 01:21:30;;;;;;;2.28;2.03;;;21.50;36.50;;;;;;5035622;28;20586;-80
2022/04/17 01:26:58;;;;;;;2.47;2.28;;;21.50;36.50;;;;;;5044258;28;20636;-79
2022/04/17 01:29:34;;;;;;;2.50;2.30;;;21.50;36.50;;;;;;5045525;28;20039;-82
2022/04/17 01:32:01;;;;;;;2.83;2.30;;;21.50;36.50;;;;;;5040926;28;20048;-81
2022/04/17 01:34:27;;;;;;;3.45;2.40;;;21.50;36.50;;;;;;5041687;28;20071;-80
2022/04/17 01:36:53;;;;;;;2.70;2.50;;;21.50;36.50;;;;;;5040329;28;20441;-80
2022/04/17 01:39:19;;;;;;;3.40;2.35;;;21.40;36.50;;;;;;5038273;28;20041;-81
2022/04/17 01:41:46;;;;;;;2.25;2.05;;;21.40;36.40;;;;;;5037528;28;20068;-80
2022/04/17 01:44:12;;;;;;;2.72;2.30;;;21.50;36.50;;;;;;5036877;28;20102;-80
2022/04/17 01:46:39;;;;;;;2.80;2.25;;;21.40;36.40;;;;;;5036401;28;20014;-80
2022/04/17 01:49:05;;;;;;;2.30;2.10;;;21.40;36.40;;;;;;5037488;28;20590;-80
2022/04/17 01:51:38;;;;;;;2.88;2.20;;;21.40;36.40;;;;;;5038789;28;20026;-81
2022/04/17 01:54:18;;;;;;;3.92;2.35;;;21.40;36.40;;;;;;5034723;28;20025;-78
2022/04/17 01:56:44;;;;;;;3.30;2.50;;;21.40;36.30;;;;;;5032314;28;20051;-82
2022/04/17 01:59:11;;;;;;;2.80;2.33;;;21.40;36.30;;;;;;5032236;28;20484;-80
2022/04/17 02:01:37;;;;;;;3.15;2.20;;;21.40;36.30;;;;;;5032352;28;20041;-79
2022/04/17 02:04:04;;;;;;;3.72;2.22;;;21.40;36.40;;;;;;5032624;28;20017;-80
2022/04/17 02:06:30;;;;;;;2.70;2.30;;;21.40;36.30;;;;;;5032330;28;20477;-81
2022/04/17 02:08:59;;;;;;;2.70;2.50;;;21.40;36.30;;;;;;5032450;28;20105;-80
2022/04/17 02:11:26;;;;;;;2.60;2.05;;;21.40;36.80;;;;;;5033302;28;20029;-79
2022/04/17 02:13:52;;;;;;;2.40;2.10;;;21.40;36.30;;;;;;5033285;28;20048;-80
2022/04/17 02:16:19;;;;;;;3.30;2.13;;;21.40;36.20;;;;;;5031939;28;20053;-81
2022/04/17 02:18:45;;;;;;;2.78;2.40;;;21.40;36.30;;;;;;5033593;28;20041;-80
2022/04/17 02:21:13;;;;;;;2.55;2.20;;;21.40;36.30;;;;;;5033368;28;20030;-80
2022/04/17 02:23:42;;;;;;;2.42;2.20;;;21.40;36.20;;;;;;5031971;28;20487;-82
2022/04/17 02:26:08;;;;;;;2.75;2.00;;;21.40;36.20;;;;;;5033602;28;20041;-80
2022/04/17 02:28:35;;;;;;;2.80;2.28;;;21.30;36.70;;;;;;5016960;28;20018;-82
2022/04/17 02:31:03;;;;;;;2.65;2.10;;;21.40;36.10;;;;;;5033667;28;20063;-80
2022/04/17 02:33:28;;;;;;;2.47;2.20;;;21.40;36.10;;;;;;5033010;28;20113;-81
2022/04/17 02:35:55;;;;;;;2.80;2.10;;;21.30;36.10;;;;;;5034364;28;20089;-80
2022/04/17 02:38:21;;;;;;;2.88;2.30;;;21.30;36.10;;;;;;5033056;28;20025;-81
2022/04/17 02:40:47;;;;;;;2.40;2.10;;;21.30;36.20;;;;;;5032963;28;20112;-82
2022/04/17 02:43:13;;;;;;;2.35;2.15;;;21.30;36.00;;;;;;5034840;28;20116;-79
2022/04/17 02:45:39;;;;;;;2.85;2.22;;;21.30;36.00;;;;;;5036700;28;20017;-79
2022/04/17 02:48:05;;;;;;;2.80;2.50;;;21.30;35.90;;;;;;5036241;28;20022;-80
2022/04/17 02:50:31;;;;;;;2.35;2.15;;;21.30;35.90;;;;;;5036479;28;20064;-80
2022/04/17 02:52:57;;;;;;;2.78;2.17;;;21.30;36.00;;;;;;5019764;28;20026;-81
2022/04/17 02:55:26;;;;;;;2.42;2.10;;;21.30;35.90;;;;;;5019925;28;20029;-80
2022/04/17 02:57:54;;;;;;;3.08;2.47;;;21.30;35.90;;;;;;5036807;28;20021;-81
2022/04/17 03:00:21;;;;;;;2.53;2.30;;;21.30;35.90;;;;;;5036571;28;20116;-82
2022/04/17 03:05:37;;;;;;;2.33;2.13;;;21.30;35.90;;;;;;5037586;28;20032;-83
2022/04/17 03:08:14;;;;;;;2.35;2.10;;;21.30;35.90;;;;;;5036720;28;20036;-80
2022/04/17 03:10:46;;;;;;;3.28;2.00;;;21.30;35.90;;;;;;5036026;28;20061;-80
2022/04/17 03:13:12;;;;;;;2.53;2.10;;;21.30;35.90;;;;;;5036205;28;20014;-81
2022/04/17 03:15:39;;;;;;;2.75;2.22;;;21.30;35.90;;;;;;5037171;28;20069;-80
2022/04/17 03:18:06;;;;;;;2.33;2.10;;;21.30;35.80;;;;;;5036917;28;20099;-80
2022/04/17 03:20:32;;;;;;;2.20;2.00;;;21.30;35.90;;;;;;5037227;28;20029;-81
2022/04/17 03:23:01;;;;;;;2.72;2.30;;;21.20;35.70;;;;;;5037106;28;20021;-82
2022/04/17 03:25:29;;;;;;;2.80;2.20;;;21.20;35.70;;;;;;5020156;28;20017;-82
2022/04/17 03:27:55;;;;;;;3.15;2.30;;;21.30;35.70;;;;;;5037577;28;20013;-82
2022/04/17 03:30:21;;;;;;;2.65;2.30;;;21.20;35.70;;;;;;5019843;28;20017;-81
2022/04/17 03:32:48;;;;;;;2.58;2.25;;;21.20;35.80;;;;;;5035788;28;20538;-81
2022/04/17 03:35:14;;;;;;;2.40;2.10;;;21.20;35.60;;;;;;5036217;28;20041;-80
2022/04/17 03:37:43;;;;;;;2.75;2.10;;;21.20;35.50;;;;;;5035207;28;20068;-81
2022/04/17 03:40:11;;;;;;;2.43;1.97;;;21.20;35.60;;;;;;5036054;28;20026;-80
2022/04/17 03:42:37;;;;;;;2.65;2.20;;;21.20;35.60;;;;;;5035453;28;20034;-81
2022/04/17 03:45:06;;;;;;;2.22;1.92;;;21.20;35.50;;;;;;5035388;28;20025;-81
2022/04/17 03:47:35;;;;;;;2.40;2.20;;;21.20;35.50;;;;;;5019455;28;20018;-80
2022/04/17 03:50:03;;;;;;;2.20;2.00;;;21.20;35.60;;;;;;5036138;28;20010;-81
2022/04/17 03:52:40;;;;;;;2.75;2.45;;;21.20;35.50;;;;;;5019625;28;20022;-80
2022/04/17 03:55:06;;;;;;;2.42;2.10;;;21.20;35.40;;;;;;5034787;28;20036;-80
2022/04/17 03:57:32;;;;;;;2.53;2.20;;;21.20;35.40;;;;;;5018908;28;20017;-81
2022/04/17 03:59:59;;;;;;;2.58;2.30;;;21.20;35.50;;;;;;5034914;28;20038;-82
2022/04/17 04:02:25;;;;;;;2.65;2.30;;;21.10;35.30;;;;;;5035353;28;20017;-80
2022/04/17 04:04:51;;;;;;;2.40;2.20;;;21.10;35.50;;;;;;5035388;28;20073;-80
2022/04/17 04:07:17;;;;;;;2.60;2.35;;;21.10;35.30;;;;;;5035301;28;20491;-82
2022/04/17 04:09:44;;;;;;;3.13;2.15;;;21.10;35.30;;;;;;5035207;28;20030;-82
2022/04/17 04:12:11;;;;;;;2.35;2.00;;;21.10;35.30;;;;;;5036100;28;20010;-81
2022/04/17 04:14:38;;;;;;;2.50;2.20;;;21.10;35.20;;;;;;5034530;28;20010;-81
2022/04/17 04:17:04;;;;;;;2.38;2.10;;;21.10;35.30;;;;;;5034323;28;20049;-82
2022/04/17 04:19:30;;;;;;;2.25;2.03;;;21.10;35.30;;;;;;5035368;28;20018;-80
2022/04/17 04:21:56;;;;;;;2.47;2.15;;;21.10;35.30;;;;;;5034458;28;20033;-81
2022/04/17 04:24:24;;;;;;;2.67;2.17;;;21.10;35.20;;;;;;5035565;28;20064;-80
2022/04/17 04:29:35;;;;;;;2.50;2.25;;;21.10;35.20;;;;;;5036013;28;20076;-83
2022/04/17 04:32:02;;;;;;;2.20;1.95;;;21.10;35.10;;;;;;5019569;28;20018;-82
2022/04/17 04:34:27;;;;;;;2.40;2.20;;;21.10;35.10;;;;;;5035883;28;20017;-82
2022/04/17 04:36:54;;;;;;;3.17;2.13;;;21.10;35.10;;;;;;5035410;28;20092;-80
2022/04/17 04:39:19;;;;;;;2.75;2.10;;;21.10;35.10;;;;;;5034299;28;20060;-80
2022/04/17 04:41:45;;;;;;;2.70;2.22;;;21.10;35.00;;;;;;5017633;28;20044;-80
2022/04/17 04:44:11;;;;;;;2.75;2.10;;;21.10;34.90;;;;;;5034080;28;20036;-80
2022/04/17 04:46:38;;;;;;;2.20;1.98;;;21.00;34.90;;;;;;5033996;28;20465;-81
2022/04/17 04:51:48;;;;;;;2.20;2.00;;;21.10;35.00;;;;;;5034511;28;20075;-80
2022/04/17 04:54:15;;;;;;;2.65;2.10;;;21.00;34.90;;;;;;5035182;28;20029;-80
2022/04/17 04:56:41;;;;;;;3.17;2.15;;;21.10;34.90;;;;;;5035139;28;20044;-82
2022/04/17 04:59:09;;;;;;;2.85;2.25;;;21.00;34.80;;;;;;5033978;28;20477;-80
2022/04/17 05:01:34;;;;;;;3.05;2.33;;;21.10;35.00;;;;;;5033810;28;20026;-80
2022/04/17 05:04:00;;;;;;;2.58;2.05;;;21.10;34.90;;;;;;5033743;28;20124;-79
2022/04/17 05:06:28;;;;;;;2.72;2.28;;;21.10;34.70;;;;;;5033838;28;20021;-80
2022/04/17 05:08:54;;;;;;;2.28;1.90;;;21.10;34.60;;;;;;5034662;28;20530;-80
2022/04/17 05:11:21;;;;;;;2.78;2.20;;;21.20;34.60;;;;;;5033873;28;20029;-81
2022/04/17 05:13:47;;;;;;;4.00;2.28;;;21.20;34.50;;;;;;5035230;28;20028;-81
2022/04/17 05:16:13;;;;;;;2.55;2.03;;;21.20;34.40;;;;;;5034356;28;20037;-80
2022/04/17 05:18:40;;;;;;;2.65;2.35;;;21.20;34.40;;;;;;5034874;28;20026;-81
2022/04/17 05:21:06;;;;;;;2.85;2.15;;;21.30;34.30;;;;;;5034316;28;20068;-80
2022/04/17 05:23:33;;;;;;;2.53;1.90;;;21.30;34.30;;;;;;5035219;28;20044;-80
2022/04/17 05:26:00;;;;;;;2.45;2.00;;;21.30;34.20;;;;;;5023101;28;20017;-80
2022/04/17 05:28:28;;;;;;;2.42;2.10;;;21.30;34.20;;;;;;5022130;28;20039;-80
2022/04/17 05:30:53;;;;;;;2.97;2.20;;;21.40;34.20;;;;;;5038618;28;20024;-80
2022/04/17 05:33:20;;;;;;;2.28;1.83;;;21.40;34.20;;;;;;5038743;28;20022;-80
2022/04/17 05:35:47;;;;;;;2.47;2.00;;;21.40;34.30;;;;;;5038767;28;20029;-79
2022/04/17 05:38:13;;;;;;;2.45;2.10;;;21.50;34.20;;;;;;5038157;28;20022;-81
2022/04/17 05:40:46;;;;;;;2.28;1.90;;;21.50;34.40;;;;;;5037838;28;20491;-81
2022/04/17 05:43:13;;;;;;;2.35;1.80;;;21.70;34.50;;;;;;5037894;28;20009;-79
2022/04/17 05:45:39;;;;;;;2.60;1.85;;;21.80;34.30;;;;;;5039358;28;20017;-79
2022/04/17 05:48:09;;;;;;;2.40;2.10;;;21.90;34.10;;;;;;5038956;28;20021;-79
2022/04/17 05:50:35;;;;;;;2.22;1.98;;;22.10;33.80;;;;;;5039014;28;20021;-78
2022/04/17 05:53:01;;;;;;;2.67;1.80;;;22.20;33.40;;;;;;5038947;28;20085;-80
2022/04/17 05:55:27;;;;;;;2.30;1.75;;;22.40;33.20;;;;;;5049314;28;20029;-79
2022/04/17 05:57:54;;;;;;;2.00;1.80;;;22.60;32.90;;;;;;5033131;28;20088;-78
2022/04/17 06:00:19;;;;;;;2.22;1.90;;;22.70;32.70;;;;;;5016381;28;20029;-79
2022/04/17 06:02:46;;;;;;;2.08;1.88;;;22.80;32.40;;;;;;5033976;28;20025;-79
2022/04/17 06:05:12;;;;;;;2.10;1.88;;;23.00;32.10;;;;;;5016894;28;20484;-79
2022/04/17 06:07:39;;;;;;;2.38;1.92;;;23.10;31.80;;;;;;5033887;28;20137;-79
2022/04/17 06:10:06;;;;;;;2.10;1.80;;;23.20;31.60;;;;;;5038081;28;20063;-79
2022/04/17 06:12:32;;;;;;;2.00;1.80;;;23.40;31.40;;;;;;5021406;28;20021;-79
2022/04/17 06:14:59;;;;;;;2.45;2.00;;;23.50;31.10;;;;;;5039348;28;20041;-79
2022/04/17 06:17:25;;;;;;;2.05;1.80;;;23.60;30.90;;;;;;5038225;28;20091;-79
2022/04/17 06:19:52;;;;;;;1.50;1.40;;;23.80;30.70;;;;;;5038261;28;20089;-80
2022/04/17 06:22:19;;;;;;;1.98;1.73;;;23.90;30.50;;;;;;5040573;28;20013;-79
2022/04/17 06:24:45;;;;;;;2.05;1.70;;;24.00;30.20;;;;;;5036265;28;20098;-78
2022/04/17 06:27:12;;;;;;;2.08;1.65;;;24.10;30.00;;;;;;5033971;28;20014;-78
2022/04/17 06:29:38;;;;;;;2.60;1.60;;;24.20;29.90;;;;;;5016548;28;20067;-78
2022/04/17 06:32:07;;;;;;;1.85;1.65;;;24.40;29.70;;;;;;5033653;28;20486;-78
2022/04/17 06:34:33;;;;;;;2.33;1.75;;;24.50;29.60;;;;;;5033768;28;20075;-78
2022/04/17 06:37:00;;;;;;;2.03;1.73;;;24.60;29.50;;;;;;5034215;28;20017;-78
2022/04/17 06:39:27;;;;;;;2.45;1.85;;;24.70;29.30;;;;;;5035748;28;20093;-81
2022/04/17 06:41:55;;;;;;;1.83;1.60;;;24.80;29.20;;;;;;5036957;28;20041;-79
2022/04/17 06:44:21;;;;;;;2.17;1.90;;;24.90;29.10;;;;;;5036773;28;20017;-80
2022/04/17 06:46:48;;;;;;;2.13;1.63;;;25.00;29.00;;;;;;5036193;28;20603;-80
2022/04/17 06:49:14;;;;;;;2.53;1.73;;;25.10;28.80;;;;;;5037332;28;20017;-80
2022/04/17 06:51:41;;;;;;;2.60;1.70;;;25.20;28.70;;;;;;5035636;28;20022;-80
2022/04/17 06:54:08;;;;;;;2.33;1.70;;;25.30;28.60;;;;;;5021354;28;20439;-80
2022/04/17 06:56:34;;;;;;;2.13;1.63;;;25.30;28.50;;;;;;5040933;28;20017;-79
2022/04/17 06:59:05;;;;;;;1.90;1.67;;;25.50;28.40;;;;;;5039735;28;20029;-79
2022/04/17 07:01:31;;;;;;;1.90;1.65;;;25.60;28.30;;;;;;5037563;28;20028;-81
2022/04/17 07:03:57;;;;;;;1.90;1.60;;;25.70;28.20;;;;;;5037127;28;20021;-79
2022/04/17 07:06:24;;;;;;;1.75;1.63;;;25.70;28.10;;;;;;5037050;28;20074;-80
2022/04/17 07:08:51;;;;;;;2.33;1.70;;;25.80;28.00;;;;;;5035525;28;20407;-78
2022/04/17 07:11:22;;;;;;;3.15;1.90;;;25.90;27.90;;;;;;5033581;28;20018;-78
2022/04/17 07:13:47;;;;;;;1.70;1.50;;;25.90;27.80;;;;;;5033039;28;20022;-78
2022/04/17 07:16:14;;;;;;;1.60;1.50;;;26.10;27.80;;;;;;5031404;28;20041;-78
2022/04/17 07:18:40;;;;;;;1.58;1.48;;;26.10;27.70;;;;;;5032159;28;20439;-79
2022/04/17 07:21:07;;;;;;;1.42;1.33;;;26.20;27.60;;;;;;5032050;28;20033;-78
2022/04/17 07:23:33;;;;;;;1.88;1.60;;;26.20;27.50;;;;;;5033376;28;20038;-80
2022/04/17 07:25:59;;;;;;;2.78;1.55;;;26.30;27.40;;;;;;5020531;28;20017;-79
2022/04/17 07:28:26;;;;;;;1.50;1.40;;;26.40;27.30;;;;;;5036066;28;20378;-79
2022/04/17 07:30:51;;;;;;;1.52;1.42;;;26.50;27.30;;;;;;5039315;28;20018;-80
2022/04/17 07:33:18;;;;;;;2.47;1.40;;;26.60;27.20;;;;;;5040255;28;20013;-80
2022/04/17 07:35:44;;;;;;;2.97;1.55;;;26.60;27.10;;;;;;5042195;28;20112;-79
2022/04/17 07:38:10;;;;;;;1.55;1.33;;;26.70;27.00;;;;;;5040252;28;20064;-79
2022/04/17 07:40:36;;;;;;;1.70;1.40;;;26.80;27.00;;;;;;5020794;28;20072;-79
2022/04/17 07:43:06;;;;;;;1.85;1.50;;;26.80;26.80;;;;;;5036998;28;20040;-81
2022/04/17 07:45:33;;;;;;;2.25;1.58;;;26.90;26.90;;;;;;5036310;28;20018;-80
2022/04/17 07:47:59;;;;;;;2.35;1.35;;;26.90;26.80;;;;;;5037555;28;20093;-80
2022/04/17 07:50:26;;;;;;;2.38;1.55;;;27.00;26.70;;;;;;5036276;28;20017;-79
2022/04/17 07:52:53;;;;;;;2.47;1.60;;;27.10;26.70;;;;;;5036393;28;20026;-81
2022/04/17 07:55:19;;;;;;;1.60;1.38;;;27.00;26.60;;;;;;5035714;28;20069;-80
2022/04/17 08:00:32;;;;;;;1.90;1.40;;;27.20;26.60;;;;;;5035922;28;20030;-81
2022/04/17 08:03:07;;;;;;;2.25;1.50;;;27.20;26.50;;;;;;5019560;28;20048;-80
2022/04/17 08:05:40;;;;;;;1.85;1.40;;;27.20;26.40;;;;;;5036130;28;20096;-82
2022/04/17 08:08:08;;;;;;;1.98;1.20;;;27.30;26.40;;;;;;5035902;28;20366;-79
2022/04/17 08:10:35;;;;;;;1.85;1.40;;;27.30;26.40;;;;;;5034451;28;20014;-79
2022/04/17 08:13:01;;;;;;;2.33;1.45;;;27.40;26.30;;;;;;5034355;28;20052;-80
2022/04/17 08:15:27;;;;;;;1.73;1.40;;;27.40;26.30;;;;;;5035455;28;20045;-79
2022/04/17 08:17:53;;;;;;;2.03;1.50;;;27.40;26.30;;;;;;5034257;28;20511;-80
2022/04/17 08:20:20;;;;;;;1.75;1.30;;;27.40;26.20;;;;;;5034142;28;20056;-79
2022/04/17 08:22:46;;;;;;;2.08;1.50;;;27.50;26.10;;;;;;5034114;28;20014;-79
2022/04/17 08:25:12;;;;;;;1.55;1.30;;;27.50;26.10;;;;;;5034423;28;20024;-80
2022/04/17 08:27:49;;;;;;;1.75;1.30;;;27.50;26.10;;;;;;5034639;28;20071;-79
2022/04/17 08:30:25;;;;;;;1.90;1.30;;;27.60;26.10;;;;;;5035063;28;20052;-80
2022/04/17 08:32:51;;;;;;;1.42;1.30;;;27.60;26.00;;;;;;5034953;28;20014;-79
2022/04/17 08:35:18;;;;;;;1.58;1.30;;;27.60;26.10;;;;;;5034860;28;20030;-79
2022/04/17 08:37:44;;;;;;;1.88;1.30;;;27.60;26.10;;;;;;5035062;28;20032;-80
2022/04/17 08:40:10;;;;;;;2.05;1.40;;;27.60;26.00;;;;;;5036891;28;20067;-79
2022/04/17 08:42:37;;;;;;;1.77;1.40;;;27.60;26.00;;;;;;5037354;28;20013;-79
2022/04/17 08:45:04;;;;;;;1.98;1.48;;;27.70;25.90;;;;;;5035910;28;20072;-80
2022/04/17 08:47:31;;;;;;;1.50;1.35;;;27.60;25.90;;;;;;5035858;28;20017;-80
2022/04/17 08:49:58;;;;;;;1.67;1.30;;;27.60;25.80;;;;;;5036325;28;20009;-80
2022/04/17 08:52:24;;;;;;;1.80;1.30;;;27.70;26.00;;;;;;5036607;28;20041;-82
2022/04/17 08:54:50;;;;;;;1.90;1.13;;;27.70;25.90;;;;;;5038722;28;20018;-81
2022/04/17 08:57:16;;;;;;;1.40;1.30;;;27.70;25.90;;;;;;5022325;28;20499;-80
2022/04/17 08:59:42;;;;;;;1.40;1.30;;;27.70;25.80;;;;;;5038349;28;20040;-81
2022/04/17 09:02:12;;;;;;;1.50;1.20;;;27.80;25.80;;;;;;5039289;28;20104;-80
2022/04/17 09:04:38;;;;;;;1.65;1.50;;;27.70;25.80;;;;;;5038881;28;20021;-81
2022/04/17 09:07:08;;;;;;;1.75;1.33;;;27.70;25.90;;;;;;5038413;28;20024;-81
2022/04/17 09:09:38;;;;;;;1.63;1.30;;;27.70;25.90;;;;;;5037094;28;20010;-78
2022/04/17 09:12:06;;;;;;;1.33;1.20;;;27.70;25.80;;;;;;5037408;28;20081;-78
2022/04/17 09:14:37;;;;;;;1.95;1.48;;;27.70;26.30;;;;;;5037463;28;20084;-81
2022/04/17 09:17:04;;;;;;;1.50;1.23;;;27.70;25.80;;;;;;5037274;28;20037;-80
2022/04/17 09:19:30;;;;;;;2.70;1.20;;;27.80;25.90;;;;;;5037761;28;20104;-79
2022/04/17 09:21:57;;;;;;;1.35;1.10;;;27.70;25.70;;;;;;5038265;28;20052;-81
2022/04/17 09:24:26;;;;;;;2.25;1.45;;;27.70;25.80;;;;;;5018406;28;20033;-77
2022/04/17 09:27:10;;;;;;;1.23;1.13;;;27.70;25.80;;;;;;5034590;28;20022;-77
2022/04/17 09:29:37;;;;;;;1.38;1.20;;;27.70;25.90;;;;;;5034348;28;20036;-77
2022/04/17 09:32:04;;;;;;;1.88;1.20;;;27.70;25.80;;;;;;5033758;28;20419;-77
2022/04/17 09:34:50;;;;;;;1.80;1.25;;;27.70;25.80;;;;;;5017705;28;20014;-77
2022/04/17 09:37:17;;;;;;;1.30;1.20;;;27.70;25.90;;;;;;5034380;28;20017;-78
2022/04/17 09:39:52;;;;;;;1.35;1.10;;;27.70;25.80;;;;;;5037221;28;20021;-78
2022/04/17 09:42:24;;;;;;;2.13;1.42;;;27.70;25.80;;;;;;5020396;28;20095;-78
2022/04/17 09:44:51;;;;;;;1.20;1.10;;;27.70;25.90;;;;;;5036141;28;20010;-77
2022/04/17 09:47:19;;;;;;;1.80;1.27;;;27.60;25.80;;;;;;5020876;28;20013;-77
2022/04/17 09:50:03;;;;;;;1.58;1.10;;;27.60;25.90;;;;;;5036352;28;20052;-77
2022/04/17 09:52:40;;;;;;;1.38;1.23;;;27.70;25.90;;;;;;5035469;28;20036;-76
2022/04/17 09:55:06;;;;;;;1.30;1.15;;;27.60;25.90;;;;;;5035335;28;20017;-76
2022/04/17 09:57:58;;;;;;;1.48;1.20;;;27.60;25.90;;;;;;5033771;28;20050;-77
2022/04/17 10:00:23;;;;;;;1.20;1.10;;;27.60;25.90;;;;;;5017117;28;20091;-77
2022/04/17 10:02:56;;;;;;;1.75;1.20;;;27.60;26.00;;;;;;5034418;28;21104;-76
2022/04/17 10:05:22;;;;;;;1.50;1.17;;;27.50;26.00;;;;;;5034253;28;20010;-77
2022/04/17 10:07:48;;;;;;;1.52;1.13;;;27.50;26.10;;;;;;5033524;28;20412;-78
2022/04/17 10:10:15;;;;;;;1.67;1.20;;;27.50;26.00;;;;;;5032635;28;20108;-77
2022/04/17 10:12:44;;;;;;;1.40;1.02;;;27.40;26.10;;;;;;5032008;28;20567;-78
2022/04/17 10:15:11;;;;;;;1.77;1.27;;;27.40;26.10;;;;;;5032172;28;20021;-77
2022/04/17 10:17:44;;;;;;;1.27;1.00;;;27.40;26.20;;;;;;5032070;28;20036;-78
2022/04/17 10:20:11;;;;;;;1.92;1.30;;;27.30;26.20;;;;;;5031917;28;20093;-78
2022/04/17 10:22:38;;;;;;;1.80;1.40;;;27.30;26.20;;;;;;5032311;28;20052;-78
2022/04/17 10:25:05;;;;;;;1.65;1.20;;;27.30;26.30;;;;;;5032476;28;20068;-80
2022/04/17 10:27:32;;;;;;;2.25;1.17;;;27.20;26.30;;;;;;5015836;28;20017;-80
2022/04/17 10:30:06;;;;;;;1.05;1.00;;;27.20;26.30;;;;;;5033308;28;20013;-81
2022/04/17 10:32:52;;;;;;;1.20;1.08;;;27.20;26.30;;;;;;5033138;28;20091;-80
2022/04/17 10:35:27;;;;;;;1.60;1.20;;;27.10;26.30;;;;;;5033716;28;20063;-80
2022/04/17 10:38:26;;;;;;;1.17;1.00;;;27.10;26.40;;;;;;5035206;28;20045;-80
2022/04/17 10:40:54;;;;;;;0.80;0.80;;;27.10;26.50;;;;;;5033804;28;20022;-80
2022/04/17 10:43:21;;;;;;;1.48;1.13;;;27.00;26.50;;;;;;5035982;28;20083;-79
2022/04/17 10:46:09;;;;;;;1.20;0.88;;;26.90;26.50;;;;;;5046692;28;20017;-80
2022/04/17 10:49:02;;;;;;;1.25;1.13;;;26.90;26.50;;;;;;5054796;28;20028;-80
2022/04/17 10:51:33;;;;;;;1.67;1.10;;;26.80;26.60;;;;;;5053377;28;20017;-82
2022/04/17 10:54:07;;;;;;;1.40;1.00;;;26.70;26.70;;;;;;5056890;28;20041;-80
2022/04/17 10:56:39;;;;;;;1.52;1.30;;;26.70;26.60;;;;;;5057215;28;20037;-80
2022/04/17 10:59:28;;;;;;;1.23;1.00;;;26.60;26.70;;;;;;5057127;28;20029;-80
2022/04/17 11:01:55;;;;;;;1.27;1.02;;;26.60;26.80;;;;;;5057622;28;20329;-80
2022/04/17 11:04:22;;;;;;;1.17;1.00;;;26.50;26.90;;;;;;5059806;28;20029;-80
2022/04/17 11:07:07;;;;;;;1.30;1.20;;;26.40;26.90;;;;;;5061119;28;20022;-80
2022/04/17 11:09:33;;;;;;;1.42;1.08;;;26.40;27.00;;;;;;5061210;28;20009;-80
2022/04/17 11:12:07;;;;;;;1.27;1.10;;;26.30;27.10;;;;;;5060905;28;20010;-80
2022/04/17 11:14:33;;;;;;;1.60;1.20;;;26.30;27.10;;;;;;5060883;28;20009;-80
2022/04/17 11:17:07;;;;;;;1.13;0.90;;;26.20;27.20;;;;;;5060108;28;20069;-80
2022/04/17 11:19:34;;;;;;;1.48;1.20;;;26.20;27.30;;;;;;5044281;28;20005;-81
2022/04/17 11:22:02;;;;;;;1.40;1.20;;;26.10;27.20;;;;;;5060363;28;20037;-80
2022/04/17 11:24:30;;;;;;;1.20;1.10;;;26.00;27.30;;;;;;5025694;28;20036;-80
2022/04/17 11:26:55;;;;;;;1.10;1.00;;;26.00;27.40;;;;;;5039243;28;20037;-80
2022/04/17 11:29:40;;;;;;;1.67;1.10;;;25.90;27.50;;;;;;5039341;28;20033;-81
2022/04/17 11:32:18;;;;;;;1.13;1.00;;;25.90;27.60;;;;;;5038986;28;20010;-79
2022/04/17 11:34:47;;;;;;;1.65;1.15;;;25.80;27.60;;;;;;5041131;28;20079;-81
2022/04/17 11:37:16;;;;;;;1.33;1.15;;;25.70;27.70;;;;;;5040082;28;20080;-80
2022/04/17 11:39:42;;;;;;;1.50;1.13;;;25.60;27.70;;;;;;5049175;28;20018;-79
2022/04/17 11:42:11;;;;;;;1.38;1.10;;;25.50;27.70;;;;;;5059511;28;20068;-79
2022/04/17 11:44:45;;;;;;;1.77;0.95;;;25.50;27.80;;;;;;5059082;28;20029;-78
2022/04/17 11:47:17;;;;;;;2.17;1.02;;;25.40;27.80;;;;;;5058629;28;20033;-80
2022/04/17 11:49:44;;;;;;;1.27;1.00;;;25.30;27.90;;;;;;5050055;28;20018;-80
2022/04/17 11:52:13;;;;;;;1.40;1.15;;;25.30;27.90;;;;;;5040138;28;20115;-79
2022/04/17 11:54:40;;;;;;;1.85;1.40;;;25.20;28.10;;;;;;5051312;28;20065;-79
2022/04/17 11:57:06;;;;;;;1.80;1.10;;;25.20;28.10;;;;;;5049430;28;20017;-80
2022/04/17 11:59:47;;;;;;;1.23;1.10;;;25.10;28.20;;;;;;5046737;28;20033;-79
2022/04/17 12:02:14;;;;;;;1.48;1.00;;;25.00;28.20;;;;;;5043508;28;20028;-81
2022/04/17 12:04:47;;;;;;;2.28;1.20;;;25.00;28.30;;;;;;5042612;28;20052;-79
2022/04/17 12:07:14;;;;;;;1.42;1.02;;;24.90;28.30;;;;;;5022114;28;20021;-78
2022/04/17 12:09:40;;;;;;;1.15;1.05;;;24.90;28.40;;;;;;5042041;28;20060;-78
2022/04/17 12:12:11;;;;;;;1.42;1.13;;;24.80;28.40;;;;;;5041864;28;20021;-79
2022/04/17 12:14:37;;;;;;;2.95;1.75;;;24.80;28.50;;;;;;5040473;28;20022;-79
2022/04/17 12:17:03;;;;;;;1.75;1.20;;;24.80;28.60;;;;;;5038535;28;20440;-79
2022/04/17 12:19:31;;;;;;;1.25;1.00;;;24.80;28.60;;;;;;5039074;28;20025;-79
2022/04/17 12:21:57;;;;;;;1.48;1.20;;;24.70;28.70;;;;;;5038934;28;20037;-79
2022/04/17 12:24:25;;;;;;;1.23;0.90;;;24.60;28.70;;;;;;5036941;28;20035;-78
2022/04/17 12:26:51;;;;;;;1.83;1.20;;;24.60;28.80;;;;;;5036176;28;20465;-78
2022/04/17 12:29:17;;;;;;;1.30;1.02;;;24.50;28.80;;;;;;5036298;28;20017;-78
2022/04/17 12:31:43;;;;;;;1.60;1.17;;;24.50;28.90;;;;;;5019336;28;20025;-78
2022/04/17 12:34:12;;;;;;;1.10;0.98;;;24.40;29.00;;;;;;5035767;28;20024;-79
2022/04/17 12:36:40;;;;;;;1.98;1.30;;;24.40;29.00;;;;;;5035842;28;20093;-80
2022/04/17 12:39:06;;;;;;;1.55;1.30;;;24.40;29.10;;;;;;5019704;28;20029;-78
2022/04/17 12:41:42;;;;;;;1.40;1.10;;;24.40;29.10;;;;;;5038971;28;20034;-79
2022/04/17 12:44:08;;;;;;;1.48;1.30;;;24.30;29.10;;;;;;5039273;28;20104;-79
2022/04/17 12:46:35;;;;;;;1.98;1.20;;;24.30;29.10;;;;;;5039134;28;20085;-79
2022/04/17 12:49:01;;;;;;;1.73;1.30;;;24.30;29.20;;;;;;5040046;28;20006;-78
2022/04/17 12:51:28;;;;;;;1.45;1.00;;;24.30;29.10;;;;;;5038925;28;20018;-80
2022/04/17 12:53:54;;;;;;;1.65;1.20;;;24.30;29.10;;;;;;5039231;28;20473;-80
2022/04/17 12:56:24;;;;;;;2.25;1.15;;;24.20;29.10;;;;;;5038589;28;20104;-80
2022/04/17 12:58:52;;;;;;;1.50;1.30;;;24.30;29.10;;;;;;5037486;28;20021;-79
2022/04/17 13:01:29;;;;;;;1.88;1.40;;;24.20;29.10;;;;;;5020690;28;20088;-78
2022/04/17 13:04:19;;;;;;;1.40;1.10;;;24.20;29.10;;;;;;5020736;28;20021;-80
2022/04/17 13:06:45;;;;;;;1.48;1.00;;;24.20;29.10;;;;;;5037492;28;20014;-80